Airfield :
LOGIN :

Register | Disclaimer

   EN    FR    IT 

 










Legend :    VFR   Marginal VFR   IFR   Intensive IFR   Very Intensive IFR
Visi :
Ceiling :
>= 8 km
>= 3000ft
5 to 8 km
1000 to 3000 ft
1500m to 5 km
500 to 1000 ft
800 to 1500m
200 to 500 ft
< 800m
< 200 ft
Symbols :   Thunderstorms  Fog  Heavy snow  Heavy precipitations  Wind > 20 kt
SIGMETs :     Misc.  Thunderstorms  Icing  Turbulence  Mountain Waves  Volcanic Ashes







- Airport Elevation : 427 ft
- IATA code : CIA


LIRA - Roma Ciampino

CURRENT METAR :
  • 171420Z 26011KT 230V300 9999 FEW030 30/18 Q1011

EXPIRED METARs :
  • 171350Z 28010KT 240V310 9999 FEW030 30/19 Q1010
  • 171320Z 29011KT 260V320 9999 FEW030 30/18 Q1010
  • 171250Z 32008KT 280V340 9999 FEW035 30/16 Q1010
  • 171220Z 33008KT 290V020 9999 FEW030 29/16 Q1010
  • 171150Z 31009KT 270V340 9999 FEW030 29/16 Q1010

TAF TAF LIRA
Valid from the 17 at 12:00 until the 18 at 12:00 UTC


171100Z 1712/1812 31010KT 9999 SCT030
BECMG 1718/1720 VRB05KT
No reported NOTAMs for that airfield.



MET'MAP, your aeronautical weather chart ! - Copyright ORBIFLY December 2007 - Disclaimer

ORBIFLY MET'MAP TEAM :

Programming & Development : Alexandra Zaïnal
Concept & Development : Baudouin d'Aumeries
Co-Development & Prog : Marc-Olivier Méhu
Technical & hardware support : Manuel Goepfert

Contact : metmap@orbifly.com




SOURCES & CREDITS :

   NOAA